createdAt,value
2019-03-16T00:02:14.327Z,35.30
2019-03-16T00:04:42.779Z,31.25
2019-03-16T00:07:11.241Z,32.83
2019-03-16T00:09:39.683Z,36.98
2019-03-16T00:14:38.335Z,28.25
2019-03-16T00:17:06.779Z,30.25
2019-03-16T00:19:35.229Z,41.15
2019-03-16T00:22:03.658Z,36.23
2019-03-16T00:24:32.108Z,25.23
2019-03-16T00:27:00.563Z,42.95
2019-03-16T00:29:29.015Z,38.08
2019-03-16T00:31:57.460Z,25.12
2019-03-16T00:34:25.962Z,33.78
2019-03-16T00:36:54.417Z,32.73
2019-03-16T00:39:22.968Z,34.05
2019-03-16T00:41:51.411Z,42.70
2019-03-16T00:44:19.867Z,28.90
2019-03-16T00:46:48.312Z,42.62
2019-03-16T00:49:16.747Z,44.75
2019-03-16T00:51:45.200Z,37.48
2019-03-16T00:54:13.635Z,43.50
2019-03-16T00:56:42.093Z,47.78
2019-03-16T00:59:10.537Z,33.42
2019-03-16T01:01:38.976Z,36.00
2019-03-16T01:04:07.423Z,31.17
2019-03-16T01:06:35.869Z,35.08
2019-03-16T01:09:07.015Z,32.00
2019-03-16T01:11:35.459Z,33.00
2019-03-16T01:14:03.924Z,39.35
2019-03-16T01:16:32.374Z,30.10
2019-03-16T01:19:00.822Z,33.48
2019-03-16T01:21:29.264Z,33.15
2019-03-16T01:23:57.719Z,25.57
2019-03-16T01:26:26.198Z,34.10
2019-03-16T01:28:54.653Z,36.17
2019-03-16T01:31:23.099Z,26.85
2019-03-16T01:33:51.566Z,27.95
2019-03-16T01:36:20.000Z,31.95
2019-03-16T01:38:48.456Z,28.90
2019-03-16T01:41:16.903Z,33.23
2019-03-16T01:43:45.342Z,28.70
2019-03-16T01:46:13.782Z,33.05
2019-03-16T01:48:43.197Z,37.45
2019-03-16T01:51:11.652Z,40.03
2019-03-16T01:53:40.096Z,33.35
2019-03-16T01:56:08.560Z,26.60
2019-03-16T01:58:37.011Z,25.88
2019-03-16T02:01:05.478Z,28.98
2019-03-16T02:03:33.926Z,25.82
2019-03-16T02:06:02.383Z,27.17
2019-03-16T02:08:30.839Z,29.25
2019-03-16T02:10:59.291Z,51.85
2019-03-16T02:13:27.776Z,44.88
2019-03-16T02:16:09.995Z,43.50
2019-03-16T02:18:26.396Z,33.30
2019-03-16T02:20:54.851Z,34.00
2019-03-16T02:23:23.317Z,30.40
2019-03-16T02:25:51.771Z,24.70
2019-03-16T02:28:20.304Z,24.27
2019-03-16T02:30:48.739Z,44.65
2019-03-16T02:33:17.194Z,34.27
2019-03-16T02:35:45.661Z,37.50
2019-03-16T02:38:14.116Z,34.08
2019-03-16T02:40:42.574Z,28.10
2019-03-16T02:43:11.013Z,50.70
2019-03-16T02:45:39.464Z,34.67
2019-03-16T02:48:07.921Z,32.53
2019-03-16T02:50:36.372Z,30.08
2019-03-16T02:53:04.842Z,32.42
2019-03-16T02:55:33.315Z,35.83
2019-03-16T02:58:01.759Z,35.60
2019-03-16T03:00:30.207Z,29.55
2019-03-16T03:02:58.692Z,34.73
2019-03-16T03:05:27.132Z,37.25
2019-03-16T03:07:55.588Z,30.77
2019-03-16T03:10:24.096Z,45.43
2019-03-16T03:12:52.550Z,33.83
2019-03-16T03:15:20.988Z,33.60
2019-03-16T03:17:49.465Z,41.28
2019-03-16T03:20:17.948Z,41.65
2019-03-16T03:22:46.453Z,35.68
2019-03-16T03:25:14.904Z,45.20
2019-03-16T03:27:43.504Z,42.65
2019-03-16T03:30:13.317Z,32.67
2019-03-16T03:32:41.813Z,30.00
2019-03-16T03:35:10.907Z,34.85
2019-03-16T03:37:39.477Z,26.85
2019-03-16T03:40:10.272Z,23.15
2019-03-16T03:42:38.778Z,35.13
2019-03-16T03:45:10.085Z,34.40
2019-03-16T03:47:38.633Z,32.67
2019-03-16T03:50:10.218Z,43.58
2019-03-16T03:52:38.670Z,33.78
2019-03-16T03:55:09.388Z,28.62
2019-03-16T03:57:38.141Z,37.73
2019-03-16T04:00:20.051Z,30.48
2019-03-16T04:02:48.534Z,35.65
2019-03-16T04:05:17.057Z,28.30
2019-03-16T04:07:45.530Z,44.05
2019-03-16T04:10:14.128Z,25.27
2019-03-16T04:12:43.558Z,26.07
2019-03-16T04:15:15.085Z,42.15
2019-03-16T04:17:43.805Z,32.42
2019-03-16T04:20:14.765Z,25.20
2019-03-16T04:22:43.518Z,42.62
2019-03-16T04:25:12.029Z,33.33
2019-03-16T04:27:40.508Z,38.08
2019-03-16T04:30:10.673Z,32.05
2019-03-16T04:32:39.190Z,39.63
2019-03-16T04:35:07.768Z,32.58
2019-03-16T04:37:36.228Z,29.67
2019-03-16T04:40:09.187Z,28.92
2019-03-16T04:42:37.730Z,29.42
2019-03-16T04:45:25.509Z,32.42
2019-03-16T04:47:53.975Z,31.80
2019-03-16T04:50:22.415Z,31.95
2019-03-16T04:52:51.254Z,34.10
2019-03-16T04:55:19.893Z,40.98
2019-03-16T04:57:48.329Z,31.30
2019-03-16T05:00:16.872Z,31.12
2019-03-16T05:02:45.315Z,40.88
2019-03-16T05:05:14.325Z,27.93
2019-03-16T05:07:43.575Z,34.64
2019-03-16T05:10:12.373Z,38.23
2019-03-16T05:12:40.823Z,35.90
2019-03-16T05:15:10.151Z,34.58
2019-03-16T05:17:38.597Z,26.52
2019-03-16T05:20:10.071Z,34.15
2019-03-16T05:22:38.555Z,27.80
2019-03-16T05:25:09.633Z,35.60
2019-03-16T05:27:38.111Z,24.12
2019-03-16T05:30:14.732Z,29.25
2019-03-16T05:32:43.635Z,35.08
2019-03-16T05:35:12.088Z,34.03
2019-03-16T05:37:40.531Z,37.13
2019-03-16T05:40:10.337Z,22.48
2019-03-16T05:42:38.782Z,30.68
2019-03-16T05:45:10.544Z,29.55
2019-03-16T05:47:39.008Z,31.97
2019-03-16T05:50:12.443Z,36.10
2019-03-16T05:52:40.886Z,35.23
2019-03-16T05:55:09.359Z,28.80
2019-03-16T05:57:37.804Z,27.50
2019-03-16T06:00:17.264Z,25.57
2019-03-16T06:02:45.703Z,28.32
2019-03-16T06:05:14.149Z,39.05
2019-03-16T06:07:43.513Z,22.87
2019-03-16T06:10:12.463Z,34.40
2019-03-16T06:12:41.020Z,37.93
2019-03-16T06:15:10.963Z,24.00
2019-03-16T06:17:39.405Z,33.55
2019-03-16T06:20:12.760Z,25.30
2019-03-16T06:22:41.200Z,39.50
2019-03-16T06:25:09.832Z,21.97
2019-03-16T06:27:38.291Z,28.70
2019-03-16T06:30:09.895Z,25.82
2019-03-16T06:32:38.487Z,25.57
2019-03-16T06:35:07.364Z,23.67
2019-03-16T06:37:35.831Z,29.07
2019-03-16T06:40:04.815Z,32.23
2019-03-16T06:42:33.259Z,26.20
2019-03-16T06:45:01.730Z,24.60
2019-03-16T06:47:30.227Z,26.68
2019-03-16T06:49:58.706Z,22.17
2019-03-16T06:52:27.176Z,27.62
2019-03-16T06:54:55.653Z,23.62
2019-03-16T06:57:24.085Z,19.70
2019-03-16T06:59:52.573Z,25.37
2019-03-16T07:02:21.099Z,33.70
2019-03-16T07:04:49.536Z,25.02
2019-03-16T07:07:17.985Z,23.15
2019-03-16T07:09:46.452Z,34.50
2019-03-16T07:12:14.905Z,39.55
2019-03-16T07:14:43.350Z,36.60
2019-03-16T07:17:11.799Z,27.00
2019-03-16T07:19:40.248Z,31.70
2019-03-16T07:22:08.707Z,26.12
2019-03-16T07:24:37.151Z,29.20
2019-03-16T07:27:05.605Z,18.65
2019-03-16T07:29:34.064Z,27.10
2019-03-16T07:32:02.520Z,29.57
2019-03-16T07:34:30.982Z,29.10
2019-03-16T07:36:59.455Z,30.95
2019-03-16T07:39:27.899Z,25.72
2019-03-16T07:41:56.367Z,19.27
2019-03-16T07:44:24.811Z,16.35
2019-03-16T07:46:53.267Z,17.23
2019-03-16T07:49:21.736Z,23.15
2019-03-16T07:51:50.178Z,22.05
2019-03-16T07:54:18.626Z,21.93
2019-03-16T07:56:47.123Z,15.68
2019-03-16T07:59:15.595Z,25.97
2019-03-16T08:01:44.040Z,33.20
2019-03-16T08:04:12.509Z,17.60
2019-03-16T08:06:40.947Z,26.73
2019-03-16T08:09:09.473Z,24.40
2019-03-16T08:11:38.072Z,18.82
2019-03-16T08:14:06.519Z,20.00
2019-03-16T08:16:37.895Z,20.95
2019-03-16T08:19:06.343Z,27.13
2019-03-16T08:21:34.803Z,16.42
2019-03-16T08:24:22.674Z,19.62
2019-03-16T08:26:51.111Z,27.32
2019-03-16T08:29:19.571Z,23.77
2019-03-16T08:31:48.021Z,26.07
2019-03-16T08:34:16.489Z,27.80
2019-03-16T08:36:44.948Z,25.12
2019-03-16T08:39:13.495Z,27.45
2019-03-16T08:41:41.954Z,16.62
2019-03-16T08:44:10.487Z,22.07
2019-03-16T08:46:39.023Z,26.25
2019-03-16T08:49:07.575Z,33.58
2019-03-16T08:51:36.041Z,23.75
2019-03-16T08:54:04.499Z,21.33
2019-03-16T08:56:32.992Z,24.92
2019-03-16T08:59:01.443Z,31.90
2019-03-16T09:01:29.895Z,25.12
2019-03-16T09:03:58.343Z,24.60
2019-03-16T09:06:26.802Z,22.07
2019-03-16T09:08:55.343Z,24.25
2019-03-16T09:11:23.786Z,18.52
2019-03-16T09:13:52.261Z,22.70
2019-03-16T09:16:20.779Z,20.85
2019-03-16T09:18:49.224Z,16.80
2019-03-16T09:21:17.662Z,25.60
2019-03-16T09:23:46.127Z,15.45
2019-03-16T09:26:14.570Z,19.75
2019-03-16T09:28:43.040Z,13.45
2019-03-16T09:31:11.488Z,13.10
2019-03-16T09:33:39.942Z,17.05
2019-03-16T09:36:08.471Z,15.25
2019-03-16T09:38:36.995Z,14.90
2019-03-16T09:41:05.452Z,12.88
2019-03-16T09:43:33.903Z,15.30
2019-03-16T09:46:02.351Z,16.45
2019-03-16T09:48:30.828Z,12.50
2019-03-16T09:50:59.375Z,12.33
2019-03-16T09:53:27.823Z,19.23
2019-03-16T09:55:56.276Z,15.53
2019-03-16T09:58:31.230Z,17.17
2019-03-16T10:00:54.895Z,15.00
2019-03-16T10:03:23.443Z,10.58
2019-03-16T10:05:51.911Z,12.78
2019-03-16T10:08:20.360Z,13.13
2019-03-16T10:10:48.819Z,6.40
2019-03-16T10:13:17.263Z,10.88
2019-03-16T10:15:45.715Z,11.55
2019-03-16T10:18:14.169Z,10.55
2019-03-16T10:20:42.609Z,13.55
2019-03-16T10:23:11.055Z,13.50
2019-03-16T10:25:39.537Z,10.05
2019-03-16T10:28:08.002Z,11.50
2019-03-16T10:30:36.541Z,8.05
2019-03-16T10:33:05.049Z,8.63
2019-03-16T10:35:33.487Z,8.83
2019-03-16T10:38:01.932Z,7.00
2019-03-16T10:40:30.398Z,12.35
2019-03-16T10:42:58.840Z,9.60
2019-03-16T10:45:27.295Z,5.62
2019-03-16T10:47:55.829Z,9.90
2019-03-16T10:50:24.277Z,4.10
2019-03-16T10:52:52.816Z,9.90
2019-03-16T10:55:21.259Z,9.20
2019-03-16T10:57:49.695Z,4.30
2019-03-16T11:00:18.220Z,15.03
2019-03-16T11:02:46.666Z,13.18
2019-03-16T11:05:15.126Z,6.67
2019-03-16T11:07:43.822Z,6.78
2019-03-16T11:10:13.712Z,5.37
2019-03-16T11:12:42.192Z,5.12
2019-03-16T11:15:14.295Z,5.30
2019-03-16T11:17:42.909Z,4.87
2019-03-16T11:20:16.454Z,4.78
2019-03-16T11:22:44.895Z,2.15
2019-03-16T11:25:13.367Z,5.78
2019-03-16T11:27:41.809Z,5.22
2019-03-16T11:30:12.692Z,8.70
2019-03-16T11:32:41.210Z,4.60
2019-03-16T11:35:10.827Z,6.83
2019-03-16T11:37:39.262Z,8.73
2019-03-16T11:40:10.787Z,6.20
2019-03-16T11:42:39.231Z,6.35
2019-03-16T11:45:10.319Z,4.72
2019-03-16T11:47:38.783Z,3.20
2019-03-16T11:50:12.002Z,4.55
2019-03-16T11:52:42.125Z,3.45
2019-03-16T11:55:10.938Z,2.45
2019-03-16T11:57:42.415Z,5.00
2019-03-16T12:00:16.147Z,3.62
2019-03-16T12:02:44.618Z,3.25
2019-03-16T12:05:13.058Z,6.87
2019-03-16T12:07:43.089Z,2.70
2019-03-16T12:10:13.928Z,4.55
2019-03-16T12:12:44.153Z,3.25
2019-03-16T12:15:13.879Z,5.75
2019-03-16T12:17:44.046Z,3.27
2019-03-16T12:20:18.278Z,5.80
2019-03-16T12:22:48.613Z,6.17
2019-03-16T12:25:17.675Z,2.85
2019-03-16T12:27:46.162Z,3.67
2019-03-16T12:30:15.548Z,3.20
2019-03-16T12:32:44.063Z,2.93
2019-03-16T12:35:12.579Z,4.65
2019-03-16T12:37:41.024Z,4.20
2019-03-16T12:40:12.172Z,3.20
2019-03-16T12:42:40.650Z,1.55
2019-03-16T12:45:14.095Z,2.98
2019-03-16T12:47:42.543Z,4.50
2019-03-16T12:50:11.125Z,3.58
2019-03-16T12:52:39.675Z,3.55
2019-03-16T12:55:11.546Z,2.22
2019-03-16T12:57:40.055Z,2.35
2019-03-16T13:00:11.611Z,2.65
2019-03-16T13:02:40.084Z,2.58
2019-03-16T13:05:08.655Z,1.95
2019-03-16T13:07:37.096Z,4.03
2019-03-16T13:10:08.951Z,2.27
2019-03-16T13:12:39.121Z,1.50
2019-03-16T13:15:09.023Z,2.22
2019-03-16T13:17:37.475Z,4.35
2019-03-16T13:20:08.351Z,3.15
2019-03-16T13:22:36.815Z,2.80
2019-03-16T13:25:08.390Z,1.90
2019-03-16T13:27:36.851Z,3.58
2019-03-16T13:30:10.879Z,2.15
2019-03-16T13:32:39.331Z,2.08
2019-03-16T13:35:08.518Z,1.95
2019-03-16T13:37:37.038Z,1.70
2019-03-16T13:40:13.379Z,2.75
2019-03-16T13:42:41.838Z,6.90
2019-03-16T13:45:10.843Z,2.98
2019-03-16T13:47:39.309Z,2.42
2019-03-16T13:50:18.882Z,3.77
2019-03-16T13:52:47.816Z,1.92
2019-03-16T13:55:16.324Z,4.10
2019-03-16T13:57:44.768Z,2.30
2019-03-16T14:00:18.239Z,4.42
2019-03-16T14:02:46.696Z,3.60
2019-03-16T14:05:15.162Z,2.92
2019-03-16T14:07:43.925Z,3.20
2019-03-16T14:10:20.007Z,5.12
2019-03-16T14:12:48.519Z,5.00
2019-03-16T14:15:16.970Z,3.77
2019-03-16T14:17:45.467Z,2.90
2019-03-16T14:20:15.617Z,2.42
2019-03-16T14:22:44.136Z,2.22
2019-03-16T14:25:12.646Z,3.62
2019-03-16T14:27:41.154Z,4.75
2019-03-16T14:30:39.046Z,2.50
2019-03-16T14:32:50.380Z,2.10
2019-03-16T14:35:18.815Z,4.72
2019-03-16T14:37:47.259Z,1.92
2019-03-16T14:40:16.357Z,3.35
2019-03-16T14:42:44.837Z,2.65
2019-03-16T14:45:14.762Z,4.17
2019-03-16T14:47:43.955Z,3.74
2019-03-16T14:50:18.025Z,4.53
2019-03-16T14:52:46.466Z,3.17
2019-03-16T14:55:15.394Z,4.25
2019-03-16T14:57:43.897Z,3.00
2019-03-16T15:00:16.870Z,3.58
2019-03-16T15:02:46.457Z,4.50
2019-03-16T15:05:15.330Z,6.42
2019-03-16T15:07:43.779Z,5.50
2019-03-16T15:10:14.467Z,6.35
2019-03-16T15:12:42.899Z,4.92
2019-03-16T15:15:14.059Z,6.53
2019-03-16T15:17:42.499Z,6.60
2019-03-16T15:20:12.009Z,7.22
2019-03-16T15:22:40.447Z,10.20
2019-03-16T15:25:11.471Z,9.90
2019-03-16T15:27:40.280Z,7.65
2019-03-16T15:30:32.271Z,10.18
2019-03-16T15:33:00.716Z,9.13
2019-03-16T15:35:29.159Z,13.43
2019-03-16T15:37:57.611Z,9.75
2019-03-16T15:40:26.127Z,12.90
2019-03-16T15:42:54.587Z,12.10
2019-03-16T15:45:28.425Z,13.10
2019-03-16T15:47:56.874Z,17.30
2019-03-16T15:50:25.318Z,13.98
2019-03-16T15:52:53.782Z,15.30
2019-03-16T15:55:22.230Z,13.65
2019-03-16T15:57:50.671Z,11.80
2019-03-16T16:00:19.965Z,17.37
2019-03-16T16:02:48.557Z,12.68
2019-03-16T16:05:17.013Z,13.65
2019-03-16T16:07:45.604Z,20.20
2019-03-16T16:10:21.012Z,12.13
2019-03-16T16:12:49.454Z,11.38
2019-03-16T16:15:18.081Z,14.87
2019-03-16T16:17:46.551Z,15.55
2019-03-16T16:20:18.722Z,12.80
2019-03-16T16:22:47.289Z,11.90
2019-03-16T16:25:15.995Z,14.98
2019-03-16T16:27:44.432Z,24.07
2019-03-16T16:30:15.971Z,16.10
2019-03-16T16:32:44.470Z,16.17
2019-03-16T16:35:14.130Z,18.67
2019-03-16T16:37:42.809Z,19.67
2019-03-16T16:40:35.092Z,15.08
2019-03-16T16:43:22.875Z,55.60
2019-03-16T16:45:51.541Z,19.90
2019-03-16T16:48:19.988Z,14.07
2019-03-16T16:50:48.437Z,20.08
2019-03-16T16:53:16.896Z,17.52
2019-03-16T16:55:45.432Z,20.68
2019-03-16T16:58:13.871Z,16.25
2019-03-16T17:00:42.329Z,21.02
2019-03-16T17:03:11.028Z,12.30
2019-03-16T17:05:39.588Z,16.00
2019-03-16T17:08:08.051Z,15.55
2019-03-16T17:10:36.507Z,27.87
2019-03-16T17:13:04.958Z,18.32
2019-03-16T17:15:33.419Z,18.02
2019-03-16T17:18:01.875Z,25.57
2019-03-16T17:20:30.338Z,22.70
2019-03-16T17:22:58.855Z,15.60
2019-03-16T17:25:27.323Z,15.75
2019-03-16T17:27:55.785Z,13.45
2019-03-16T17:30:29.531Z,12.25
2019-03-16T17:32:57.985Z,10.03
2019-03-16T17:35:26.428Z,14.63
2019-03-16T17:37:54.875Z,13.62
2019-03-16T17:40:23.349Z,11.93
2019-03-16T17:42:51.804Z,14.38
2019-03-16T17:45:22.178Z,19.67
2019-03-16T17:50:18.286Z,13.28
2019-03-16T17:52:46.727Z,13.03
2019-03-16T17:55:17.604Z,16.87
2019-03-16T17:57:46.157Z,10.68
2019-03-16T18:00:17.514Z,12.00
2019-03-16T18:02:51.743Z,7.17
2019-03-16T18:05:16.322Z,13.35
2019-03-16T18:07:44.795Z,12.45
2019-03-16T18:10:14.290Z,11.78
2019-03-16T18:12:42.733Z,14.67
2019-03-16T18:15:12.917Z,9.50
2019-03-16T18:17:41.358Z,12.37
2019-03-16T18:20:37.848Z,8.93
2019-03-16T18:23:06.303Z,15.83
2019-03-16T18:25:37.645Z,10.35
2019-03-16T18:28:05.068Z,8.05
2019-03-16T18:30:33.527Z,13.32
2019-03-16T18:33:01.978Z,13.15
2019-03-16T18:35:30.425Z,14.33
2019-03-16T18:37:59.009Z,15.30
2019-03-16T18:40:27.469Z,16.82
2019-03-16T18:42:55.980Z,15.03
2019-03-16T18:45:27.538Z,11.48
2019-03-16T18:47:56.057Z,13.75
2019-03-16T18:50:24.529Z,17.37
2019-03-16T18:52:53.166Z,16.30
2019-03-16T18:55:21.701Z,8.43
2019-03-16T18:57:50.141Z,12.18
2019-03-16T19:00:19.055Z,8.45
2019-03-16T19:02:47.583Z,9.13
2019-03-16T19:05:16.061Z,13.93
2019-03-16T19:07:44.499Z,8.05
2019-03-16T19:10:16.759Z,14.93
2019-03-16T19:12:45.491Z,10.82
2019-03-16T19:15:15.067Z,11.28
2019-03-16T19:17:43.687Z,13.15
2019-03-16T19:20:18.034Z,10.05
2019-03-16T19:22:46.585Z,7.03
2019-03-16T19:25:16.259Z,12.73
2019-03-16T19:27:44.769Z,8.68
2019-03-16T19:30:17.060Z,8.85
2019-03-16T19:32:45.500Z,14.73
2019-03-16T19:35:13.957Z,7.55
2019-03-16T19:37:42.558Z,16.05
2019-03-16T19:40:18.856Z,17.20
2019-03-16T19:42:47.462Z,12.03
2019-03-16T19:45:16.105Z,10.70
2019-03-16T19:47:44.544Z,11.45
2019-03-16T19:50:14.841Z,10.25
2019-03-16T19:52:43.374Z,8.20
2019-03-16T19:55:12.954Z,8.95
2019-03-16T19:57:41.475Z,9.47
2019-03-16T20:00:19.397Z,11.33
2019-03-16T20:02:51.287Z,7.65
2019-03-16T20:05:18.117Z,7.22
2019-03-16T20:07:46.559Z,8.55
2019-03-16T20:10:16.263Z,9.18
2019-03-16T20:12:44.712Z,13.83
2019-03-16T20:15:14.507Z,6.45
2019-03-16T20:17:43.138Z,7.62
2019-03-16T20:20:13.423Z,6.62
2019-03-16T20:22:41.967Z,12.65
2019-03-16T20:25:11.715Z,12.47
2019-03-16T20:27:40.169Z,20.08
2019-03-16T20:30:11.710Z,13.90
2019-03-16T20:32:40.170Z,12.23
2019-03-16T20:35:09.472Z,7.15
2019-03-16T20:37:37.933Z,19.95
2019-03-16T20:40:18.323Z,10.95
2019-03-16T20:42:47.132Z,14.87
2019-03-16T20:45:16.095Z,8.78
2019-03-16T20:47:44.800Z,10.25
2019-03-16T20:50:15.563Z,9.63
2019-03-16T20:52:44.067Z,8.05
2019-03-16T20:55:12.691Z,7.62
2019-03-16T20:57:41.162Z,11.33
2019-03-16T21:00:14.776Z,10.58
2019-03-16T21:02:43.221Z,11.75
2019-03-16T21:05:11.740Z,8.73
2019-03-16T21:07:40.179Z,8.30
2019-03-16T21:10:10.523Z,15.38
2019-03-16T21:15:11.780Z,8.13
2019-03-16T21:17:40.253Z,11.33
2019-03-16T21:20:11.708Z,10.55
2019-03-16T21:22:40.154Z,11.78
2019-03-16T21:25:10.592Z,12.60
2019-03-16T21:27:39.075Z,8.73
2019-03-16T21:30:10.606Z,6.08
2019-03-16T21:32:39.035Z,9.50
2019-03-16T21:35:08.138Z,7.80
2019-03-16T21:37:36.592Z,10.45
2019-03-16T21:40:08.060Z,17.00
2019-03-16T21:42:36.575Z,9.20
2019-03-16T21:45:07.819Z,5.62
2019-03-16T21:47:36.290Z,14.68
2019-03-16T21:50:15.150Z,15.83
2019-03-16T21:52:44.788Z,12.55
2019-03-16T21:55:14.703Z,10.08
2019-03-16T21:57:43.215Z,9.93
2019-03-16T22:00:16.776Z,11.38
2019-03-16T22:02:45.255Z,10.40
2019-03-16T22:05:14.445Z,14.03
2019-03-16T22:07:42.896Z,12.25
2019-03-16T22:10:12.507Z,11.95
2019-03-16T22:12:40.953Z,9.60
2019-03-16T22:15:13.500Z,16.70
2019-03-16T22:17:41.966Z,14.00
2019-03-16T22:20:14.911Z,9.35
2019-03-16T22:22:43.355Z,8.98
2019-03-16T22:25:12.262Z,10.63
2019-03-16T22:27:40.708Z,15.38
2019-03-16T22:30:17.129Z,7.78
2019-03-16T22:32:45.573Z,15.10
2019-03-16T22:35:14.093Z,11.85
2019-03-16T22:37:42.544Z,9.43
2019-03-16T22:40:13.102Z,10.58
2019-03-16T22:42:41.587Z,15.30
2019-03-16T22:45:11.677Z,8.78
2019-03-16T22:47:40.147Z,8.98
2019-03-16T22:50:11.538Z,11.08
2019-03-16T22:52:39.991Z,6.65
2019-03-16T22:55:08.594Z,12.93
2019-03-16T22:57:37.037Z,7.53
2019-03-16T23:00:08.792Z,12.07
2019-03-16T23:02:37.251Z,8.38
2019-03-16T23:05:08.841Z,11.73
2019-03-16T23:07:37.289Z,7.00
2019-03-16T23:10:12.483Z,8.18
2019-03-16T23:12:40.927Z,10.35
2019-03-16T23:15:12.643Z,7.20
2019-03-16T23:17:41.225Z,8.90
2019-03-16T23:20:10.578Z,9.70
2019-03-16T23:22:39.031Z,7.53
2019-03-16T23:25:09.223Z,8.80
2019-03-16T23:27:37.739Z,7.42
2019-03-16T23:30:08.292Z,10.08
2019-03-16T23:35:05.284Z,10.55
2019-03-16T23:37:33.725Z,8.70
2019-03-16T23:40:02.190Z,11.43
2019-03-16T23:42:30.631Z,9.13
2019-03-16T23:44:59.080Z,8.73
2019-03-16T23:47:27.523Z,10.95
2019-03-16T23:49:55.971Z,5.92
2019-03-16T23:52:24.414Z,9.43
2019-03-16T23:54:52.883Z,11.08
2019-03-16T23:57:21.333Z,7.95
2019-03-16T23:59:49.777Z,7.15
